sensor_id;sensor_type;location;lat;lon;timestamp;P1;durP1;ratioP1;P2;durP2;ratioP2
83435;SDS011;73365;51.688;5.132;2023-11-19T00:01:46;16.05;;;8.00;;
83435;SDS011;73365;51.688;5.132;2023-11-19T00:06:37;10.50;;;6.60;;
83435;SDS011;73365;51.688;5.132;2023-11-19T00:11:29;13.57;;;6.18;;
83435;SDS011;73365;51.688;5.132;2023-11-19T00:13:54;12.57;;;6.43;;
83435;SDS011;73365;51.688;5.132;2023-11-19T00:18:44;12.87;;;5.53;;
83435;SDS011;73365;51.688;5.132;2023-11-19T00:23:35;18.98;;;6.60;;
83435;SDS011;73365;51.688;5.132;2023-11-19T00:28:27;12.43;;;4.68;;
83435;SDS011;73365;51.688;5.132;2023-11-19T00:33:18;15.75;;;5.03;;
83435;SDS011;73365;51.688;5.132;2023-11-19T00:38:08;12.60;;;4.63;;
83435;SDS011;73365;51.688;5.132;2023-11-19T00:42:59;12.07;;;4.50;;
83435;SDS011;73365;51.688;5.132;2023-11-19T00:47:50;17.88;;;5.35;;
83435;SDS011;73365;51.688;5.132;2023-11-19T00:52:41;14.27;;;4.00;;
83435;SDS011;73365;51.688;5.132;2023-11-19T00:57:32;19.77;;;4.85;;
83435;SDS011;73365;51.688;5.132;2023-11-19T00:59:57;15.98;;;4.00;;
83435;SDS011;73365;51.688;5.132;2023-11-19T01:02:23;12.07;;;3.22;;
83435;SDS011;73365;51.688;5.132;2023-11-19T01:07:14;17.00;;;3.97;;
83435;SDS011;73365;51.688;5.132;2023-11-19T01:12:06;8.77;;;2.70;;
83435;SDS011;73365;51.688;5.132;2023-11-19T01:16:57;15.53;;;3.97;;
83435;SDS011;73365;51.688;5.132;2023-11-19T01:21:48;11.87;;;3.13;;
83435;SDS011;73365;51.688;5.132;2023-11-19T01:24:14;17.20;;;3.85;;
83435;SDS011;73365;51.688;5.132;2023-11-19T01:29:10;20.58;;;3.47;;
83435;SDS011;73365;51.688;5.132;2023-11-19T01:31:41;23.75;;;3.28;;
83435;SDS011;73365;51.688;5.132;2023-11-19T01:34:10;22.00;;;4.45;;
83435;SDS011;73365;51.688;5.132;2023-11-19T01:39:02;20.90;;;3.50;;
83435;SDS011;73365;51.688;5.132;2023-11-19T01:41:29;21.08;;;4.20;;
83435;SDS011;73365;51.688;5.132;2023-11-19T01:46:19;22.47;;;3.37;;
83435;SDS011;73365;51.688;5.132;2023-11-19T01:51:11;23.20;;;4.38;;
83435;SDS011;73365;51.688;5.132;2023-11-19T01:53:41;24.83;;;3.67;;
83435;SDS011;73365;51.688;5.132;2023-11-19T01:56:08;23.60;;;3.22;;
83435;SDS011;73365;51.688;5.132;2023-11-19T01:58:35;29.40;;;3.38;;
83435;SDS011;73365;51.688;5.132;2023-11-19T02:01:01;22.83;;;3.53;;
83435;SDS011;73365;51.688;5.132;2023-11-19T02:03:29;19.98;;;3.90;;
83435;SDS011;73365;51.688;5.132;2023-11-19T02:05:59;16.10;;;3.53;;
83435;SDS011;73365;51.688;5.132;2023-11-19T02:08:25;25.30;;;3.85;;
83435;SDS011;73365;51.688;5.132;2023-11-19T02:10:51;22.30;;;3.88;;
83435;SDS011;73365;51.688;5.132;2023-11-19T02:15:42;21.93;;;3.33;;
83435;SDS011;73365;51.688;5.132;2023-11-19T02:20:44;31.02;;;4.25;;
83435;SDS011;73365;51.688;5.132;2023-11-19T02:25:35;22.13;;;3.37;;
83435;SDS011;73365;51.688;5.132;2023-11-19T02:30:26;23.23;;;3.78;;
83435;SDS011;73365;51.688;5.132;2023-11-19T02:35:30;29.48;;;4.22;;
83435;SDS011;73365;51.688;5.132;2023-11-19T02:37:56;22.45;;;4.00;;
83435;SDS011;73365;51.688;5.132;2023-11-19T02:42:49;27.58;;;4.65;;
83435;SDS011;73365;51.688;5.132;2023-11-19T02:47:41;21.20;;;3.15;;
83435;SDS011;73365;51.688;5.132;2023-11-19T02:50:12;18.80;;;3.30;;
83435;SDS011;73365;51.688;5.132;2023-11-19T02:52:42;27.85;;;3.60;;
83435;SDS011;73365;51.688;5.132;2023-11-19T02:55:11;20.17;;;3.83;;
83435;SDS011;73365;51.688;5.132;2023-11-19T02:57:40;25.13;;;4.03;;
83435;SDS011;73365;51.688;5.132;2023-11-19T03:00:14;28.50;;;4.03;;
83435;SDS011;73365;51.688;5.132;2023-11-19T03:02:40;19.80;;;3.30;;
83435;SDS011;73365;51.688;5.132;2023-11-19T03:05:15;27.10;;;4.43;;
83435;SDS011;73365;51.688;5.132;2023-11-19T03:07:42;22.60;;;4.18;;
83435;SDS011;73365;51.688;5.132;2023-11-19T03:10:08;27.88;;;5.18;;
83435;SDS011;73365;51.688;5.132;2023-11-19T03:12:37;22.90;;;4.20;;
83435;SDS011;73365;51.688;5.132;2023-11-19T03:17:28;27.98;;;4.25;;
83435;SDS011;73365;51.688;5.132;2023-11-19T03:22:18;23.93;;;3.93;;
83435;SDS011;73365;51.688;5.132;2023-11-19T03:27:09;19.43;;;3.30;;
83435;SDS011;73365;51.688;5.132;2023-11-19T03:29:36;26.55;;;4.50;;
83435;SDS011;73365;51.688;5.132;2023-11-19T03:32:01;28.97;;;3.60;;
83435;SDS011;73365;51.688;5.132;2023-11-19T03:34:27;23.35;;;4.20;;
83435;SDS011;73365;51.688;5.132;2023-11-19T03:39:17;24.17;;;3.93;;
83435;SDS011;73365;51.688;5.132;2023-11-19T03:44:10;27.40;;;4.00;;
83435;SDS011;73365;51.688;5.132;2023-11-19T03:46:35;24.20;;;3.35;;
83435;SDS011;73365;51.688;5.132;2023-11-19T03:51:27;26.38;;;4.15;;
83435;SDS011;73365;51.688;5.132;2023-11-19T03:56:17;28.87;;;4.20;;
83435;SDS011;73365;51.688;5.132;2023-11-19T04:01:11;25.33;;;3.75;;
83435;SDS011;73365;51.688;5.132;2023-11-19T04:03:40;29.38;;;4.32;;
83435;SDS011;73365;51.688;5.132;2023-11-19T04:06:05;24.50;;;4.75;;
83435;SDS011;73365;51.688;5.132;2023-11-19T04:10:56;26.60;;;4.00;;
83435;SDS011;73365;51.688;5.132;2023-11-19T04:15:48;26.85;;;4.53;;
83435;SDS011;73365;51.688;5.132;2023-11-19T04:18:14;28.90;;;4.20;;
83435;SDS011;73365;51.688;5.132;2023-11-19T04:20:39;24.35;;;4.38;;
83435;SDS011;73365;51.688;5.132;2023-11-19T04:23:07;24.83;;;3.75;;
83435;SDS011;73365;51.688;5.132;2023-11-19T04:25:33;27.52;;;4.65;;
83435;SDS011;73365;51.688;5.132;2023-11-19T04:30:23;22.93;;;3.13;;
83435;SDS011;73365;51.688;5.132;2023-11-19T04:35:14;25.42;;;4.40;;
83435;SDS011;73365;51.688;5.132;2023-11-19T04:40:05;24.27;;;3.80;;
83435;SDS011;73365;51.688;5.132;2023-11-19T04:44:57;23.20;;;3.72;;
83435;SDS011;73365;51.688;5.132;2023-11-19T04:49:47;25.70;;;4.83;;
83435;SDS011;73365;51.688;5.132;2023-11-19T04:54:41;28.07;;;3.87;;
83435;SDS011;73365;51.688;5.132;2023-11-19T04:57:08;27.83;;;5.25;;
83435;SDS011;73365;51.688;5.132;2023-11-19T04:59:36;29.60;;;3.85;;
83435;SDS011;73365;51.688;5.132;2023-11-19T05:02:02;28.40;;;4.78;;
83435;SDS011;73365;51.688;5.132;2023-11-19T05:04:29;25.73;;;4.15;;
83435;SDS011;73365;51.688;5.132;2023-11-19T05:06:54;29.58;;;4.35;;
83435;SDS011;73365;51.688;5.132;2023-11-19T05:11:45;26.53;;;3.87;;
83435;SDS011;73365;51.688;5.132;2023-11-19T05:16:35;31.53;;;6.33;;
83435;SDS011;73365;51.688;5.132;2023-11-19T05:21:26;30.17;;;3.80;;
83435;SDS011;73365;51.688;5.132;2023-11-19T05:26:17;26.77;;;3.37;;
83435;SDS011;73365;51.688;5.132;2023-11-19T05:28:46;25.17;;;3.55;;
83435;SDS011;73365;51.688;5.132;2023-11-19T05:31:11;22.92;;;4.05;;
83435;SDS011;73365;51.688;5.132;2023-11-19T05:36:02;25.33;;;4.07;;
83435;SDS011;73365;51.688;5.132;2023-11-19T05:38:29;24.58;;;4.15;;
83435;SDS011;73365;51.688;5.132;2023-11-19T05:40:54;25.08;;;3.88;;
83435;SDS011;73365;51.688;5.132;2023-11-19T05:45:46;33.55;;;5.43;;
83435;SDS011;73365;51.688;5.132;2023-11-19T05:50:36;22.93;;;3.83;;
83435;SDS011;73365;51.688;5.132;2023-11-19T05:55:27;30.03;;;4.17;;
83435;SDS011;73365;51.688;5.132;2023-11-19T06:00:18;32.20;;;4.47;;
83435;SDS011;73365;51.688;5.132;2023-11-19T06:05:09;27.53;;;3.50;;
83435;SDS011;73365;51.688;5.132;2023-11-19T06:10:01;28.10;;;4.55;;
83435;SDS011;73365;51.688;5.132;2023-11-19T06:12:27;25.48;;;4.00;;
83435;SDS011;73365;51.688;5.132;2023-11-19T06:14:53;24.92;;;4.05;;
83435;SDS011;73365;51.688;5.132;2023-11-19T06:19:43;25.93;;;4.00;;
83435;SDS011;73365;51.688;5.132;2023-11-19T06:24:35;29.60;;;4.00;;
83435;SDS011;73365;51.688;5.132;2023-11-19T06:29:26;29.07;;;3.67;;
83435;SDS011;73365;51.688;5.132;2023-11-19T06:34:17;29.17;;;3.93;;
83435;SDS011;73365;51.688;5.132;2023-11-19T06:39:10;25.33;;;4.60;;
83435;SDS011;73365;51.688;5.132;2023-11-19T06:41:38;28.17;;;4.63;;
83435;SDS011;73365;51.688;5.132;2023-11-19T06:46:30;24.08;;;3.65;;
83435;SDS011;73365;51.688;5.132;2023-11-19T06:48:56;23.33;;;5.60;;
83435;SDS011;73365;51.688;5.132;2023-11-19T06:53:47;29.73;;;4.77;;
83435;SDS011;73365;51.688;5.132;2023-11-19T06:58:47;30.63;;;4.03;;
83435;SDS011;73365;51.688;5.132;2023-11-19T07:03:39;31.98;;;4.32;;
83435;SDS011;73365;51.688;5.132;2023-11-19T07:08:30;24.38;;;3.83;;
83435;SDS011;73365;51.688;5.132;2023-11-19T07:13:21;26.67;;;4.50;;
83435;SDS011;73365;51.688;5.132;2023-11-19T07:18:12;24.75;;;3.30;;
83435;SDS011;73365;51.688;5.132;2023-11-19T07:23:03;23.30;;;3.85;;
83435;SDS011;73365;51.688;5.132;2023-11-19T07:25:28;24.48;;;3.85;;
83435;SDS011;73365;51.688;5.132;2023-11-19T07:27:54;30.13;;;4.85;;
83435;SDS011;73365;51.688;5.132;2023-11-19T07:32:44;29.60;;;4.50;;
83435;SDS011;73365;51.688;5.132;2023-11-19T07:37:35;29.97;;;3.97;;
83435;SDS011;73365;51.688;5.132;2023-11-19T07:42:25;20.63;;;2.97;;
83435;SDS011;73365;51.688;5.132;2023-11-19T07:47:16;22.23;;;3.87;;
83435;SDS011;73365;51.688;5.132;2023-11-19T07:52:09;26.92;;;4.18;;
83435;SDS011;73365;51.688;5.132;2023-11-19T07:56:59;28.70;;;4.87;;
83435;SDS011;73365;51.688;5.132;2023-11-19T08:01:50;24.07;;;3.90;;
83435;SDS011;73365;51.688;5.132;2023-11-19T08:04:15;24.85;;;3.72;;
83435;SDS011;73365;51.688;5.132;2023-11-19T08:09:06;27.23;;;3.53;;
83435;SDS011;73365;51.688;5.132;2023-11-19T08:11:32;28.77;;;5.03;;
83435;SDS011;73365;51.688;5.132;2023-11-19T08:13:58;31.80;;;4.90;;
83435;SDS011;73365;51.688;5.132;2023-11-19T08:16:23;19.58;;;3.40;;
83435;SDS011;73365;51.688;5.132;2023-11-19T08:21:14;20.90;;;4.10;;
83435;SDS011;73365;51.688;5.132;2023-11-19T08:26:05;25.63;;;3.80;;
83435;SDS011;73365;51.688;5.132;2023-11-19T08:30:56;26.43;;;3.67;;
83435;SDS011;73365;51.688;5.132;2023-11-19T08:35:47;30.85;;;5.03;;
83435;SDS011;73365;51.688;5.132;2023-11-19T08:40:38;19.50;;;3.67;;
83435;SDS011;73365;51.688;5.132;2023-11-19T08:45:29;24.40;;;3.93;;
83435;SDS011;73365;51.688;5.132;2023-11-19T08:47:56;25.40;;;3.97;;
83435;SDS011;73365;51.688;5.132;2023-11-19T08:52:47;26.50;;;3.78;;
83435;SDS011;73365;51.688;5.132;2023-11-19T08:57:38;27.30;;;4.28;;
83435;SDS011;73365;51.688;5.132;2023-11-19T09:02:33;26.83;;;3.63;;
83435;SDS011;73365;51.688;5.132;2023-11-19T09:05:05;23.63;;;4.68;;
83435;SDS011;73365;51.688;5.132;2023-11-19T09:07:32;28.52;;;4.53;;
83435;SDS011;73365;51.688;5.132;2023-11-19T09:12:23;31.43;;;5.77;;
83435;SDS011;73365;51.688;5.132;2023-11-19T09:17:14;27.00;;;4.10;;
83435;SDS011;73365;51.688;5.132;2023-11-19T09:19:40;26.15;;;4.32;;
83435;SDS011;73365;51.688;5.132;2023-11-19T09:24:31;28.60;;;4.10;;
83435;SDS011;73365;51.688;5.132;2023-11-19T09:29:22;25.80;;;3.78;;
83435;SDS011;73365;51.688;5.132;2023-11-19T09:31:48;27.42;;;4.05;;
83435;SDS011;73365;51.688;5.132;2023-11-19T09:36:39;24.43;;;3.47;;
83435;SDS011;73365;51.688;5.132;2023-11-19T09:39:08;22.40;;;4.63;;
83435;SDS011;73365;51.688;5.132;2023-11-19T09:43:59;25.70;;;3.77;;
83435;SDS011;73365;51.688;5.132;2023-11-19T09:48:51;24.37;;;3.23;;
83435;SDS011;73365;51.688;5.132;2023-11-19T09:51:19;26.23;;;4.65;;
83435;SDS011;73365;51.688;5.132;2023-11-19T09:56:10;27.50;;;3.80;;
83435;SDS011;73365;51.688;5.132;2023-11-19T09:58:36;21.88;;;3.45;;
83435;SDS011;73365;51.688;5.132;2023-11-19T10:03:36;24.58;;;3.75;;
83435;SDS011;73365;51.688;5.132;2023-11-19T10:06:08;25.13;;;4.30;;
83435;SDS011;73365;51.688;5.132;2023-11-19T10:08:38;21.92;;;3.85;;
83435;SDS011;73365;51.688;5.132;2023-11-19T10:11:07;25.20;;;3.78;;
83435;SDS011;73365;51.688;5.132;2023-11-19T10:13:35;19.95;;;3.53;;
83435;SDS011;73365;51.688;5.132;2023-11-19T10:16:08;21.85;;;3.38;;
83435;SDS011;73365;51.688;5.132;2023-11-19T10:18:34;24.15;;;4.03;;
83435;SDS011;73365;51.688;5.132;2023-11-19T10:21:05;21.85;;;4.03;;
83435;SDS011;73365;51.688;5.132;2023-11-19T10:23:31;27.80;;;4.15;;
83435;SDS011;73365;51.688;5.132;2023-11-19T10:28:37;32.20;;;4.05;;
83435;SDS011;73365;51.688;5.132;2023-11-19T10:31:04;23.27;;;3.97;;
83435;SDS011;73365;51.688;5.132;2023-11-19T10:33:30;28.88;;;4.55;;
83435;SDS011;73365;51.688;5.132;2023-11-19T10:38:21;22.27;;;3.45;;
83435;SDS011;73365;51.688;5.132;2023-11-19T10:43:13;26.35;;;4.15;;
83435;SDS011;73365;51.688;5.132;2023-11-19T10:45:39;27.23;;;4.18;;
83435;SDS011;73365;51.688;5.132;2023-11-19T10:48:05;20.08;;;3.47;;
83435;SDS011;73365;51.688;5.132;2023-11-19T10:50:41;25.15;;;4.82;;
83435;SDS011;73365;51.688;5.132;2023-11-19T10:53:08;26.55;;;3.92;;
83435;SDS011;73365;51.688;5.132;2023-11-19T10:55:38;19.80;;;3.60;;
83435;SDS011;73365;51.688;5.132;2023-11-19T10:58:05;22.67;;;4.43;;
83435;SDS011;73365;51.688;5.132;2023-11-19T11:03:21;22.20;;;4.13;;
83435;SDS011;73365;51.688;5.132;2023-11-19T11:05:52;31.30;;;5.15;;
83435;SDS011;73365;51.688;5.132;2023-11-19T11:08:19;23.75;;;3.50;;
83435;SDS011;73365;51.688;5.132;2023-11-19T11:10:46;28.15;;;4.43;;
83435;SDS011;73365;51.688;5.132;2023-11-19T11:13:17;32.20;;;4.78;;
83435;SDS011;73365;51.688;5.132;2023-11-19T11:15:44;18.70;;;3.00;;
83435;SDS011;73365;51.688;5.132;2023-11-19T11:18:11;24.13;;;3.50;;
83435;SDS011;73365;51.688;5.132;2023-11-19T11:20:38;15.48;;;2.33;;
83435;SDS011;73365;51.688;5.132;2023-11-19T11:25:40;17.70;;;3.33;;
83435;SDS011;73365;51.688;5.132;2023-11-19T11:36:44;19.25;;;3.08;;
83435;SDS011;73365;51.688;5.132;2023-11-19T11:39:30;15.05;;;2.70;;
83435;SDS011;73365;51.688;5.132;2023-11-19T11:50:09;16.30;;;3.20;;
83435;SDS011;73365;51.688;5.132;2023-11-19T11:55:36;20.70;;;2.90;;
83435;SDS011;73365;51.688;5.132;2023-11-19T11:58:03;19.38;;;3.45;;
83435;SDS011;73365;51.688;5.132;2023-11-19T12:00:30;21.42;;;4.13;;
83435;SDS011;73365;51.688;5.132;2023-11-19T12:02:56;19.38;;;3.83;;
83435;SDS011;73365;51.688;5.132;2023-11-19T12:05:25;20.20;;;2.72;;
83435;SDS011;73365;51.688;5.132;2023-11-19T12:10:26;17.60;;;3.10;;
83435;SDS011;73365;51.688;5.132;2023-11-19T12:12:59;17.35;;;3.85;;
83435;SDS011;73365;51.688;5.132;2023-11-19T12:15:27;19.23;;;3.80;;
83435;SDS011;73365;51.688;5.132;2023-11-19T12:20:21;23.10;;;3.20;;
83435;SDS011;73365;51.688;5.132;2023-11-19T12:22:48;16.67;;;3.92;;
83435;SDS011;73365;51.688;5.132;2023-11-19T12:25:14;24.20;;;4.50;;
83435;SDS011;73365;51.688;5.132;2023-11-19T12:27:45;19.98;;;4.00;;
83435;SDS011;73365;51.688;5.132;2023-11-19T12:30:11;21.63;;;4.35;;
83435;SDS011;73365;51.688;5.132;2023-11-19T12:32:40;21.35;;;4.00;;
83435;SDS011;73365;51.688;5.132;2023-11-19T12:35:07;29.80;;;4.15;;
83435;SDS011;73365;51.688;5.132;2023-11-19T12:37:45;22.48;;;4.15;;
83435;SDS011;73365;51.688;5.132;2023-11-19T12:40:13;20.30;;;3.67;;
83435;SDS011;73365;51.688;5.132;2023-11-19T12:42:46;26.45;;;4.78;;
83435;SDS011;73365;51.688;5.132;2023-11-19T12:45:12;19.40;;;4.25;;
83435;SDS011;73365;51.688;5.132;2023-11-19T12:47:41;25.52;;;4.78;;
83435;SDS011;73365;51.688;5.132;2023-11-19T12:50:07;19.77;;;3.78;;
83435;SDS011;73365;51.688;5.132;2023-11-19T12:52:36;20.30;;;3.83;;
83435;SDS011;73365;51.688;5.132;2023-11-19T12:55:06;20.70;;;4.30;;
83435;SDS011;73365;51.688;5.132;2023-11-19T12:57:51;23.67;;;3.88;;
83435;SDS011;73365;51.688;5.132;2023-11-19T13:05:31;17.52;;;3.63;;
83435;SDS011;73365;51.688;5.132;2023-11-19T13:08:07;24.42;;;4.03;;
83435;SDS011;73365;51.688;5.132;2023-11-19T13:10:55;19.50;;;3.47;;
83435;SDS011;73365;51.688;5.132;2023-11-19T13:13:20;18.13;;;3.35;;
83435;SDS011;73365;51.688;5.132;2023-11-19T13:18:11;20.13;;;2.83;;
83435;SDS011;73365;51.688;5.132;2023-11-19T13:23:03;23.30;;;3.63;;
83435;SDS011;73365;51.688;5.132;2023-11-19T13:25:29;19.00;;;3.42;;
83435;SDS011;73365;51.688;5.132;2023-11-19T13:27:55;18.83;;;3.40;;
83435;SDS011;73365;51.688;5.132;2023-11-19T13:32:47;18.05;;;3.05;;
83435;SDS011;73365;51.688;5.132;2023-11-19T13:37:38;17.73;;;3.23;;
83435;SDS011;73365;51.688;5.132;2023-11-19T13:40:05;22.75;;;3.50;;
83435;SDS011;73365;51.688;5.132;2023-11-19T13:42:35;23.88;;;3.72;;
83435;SDS011;73365;51.688;5.132;2023-11-19T13:45:02;21.85;;;3.67;;
83435;SDS011;73365;51.688;5.132;2023-11-19T13:47:28;19.73;;;3.63;;
83435;SDS011;73365;51.688;5.132;2023-11-19T13:52:19;23.50;;;3.37;;
83435;SDS011;73365;51.688;5.132;2023-11-19T13:57:09;18.27;;;2.80;;
83435;SDS011;73365;51.688;5.132;2023-11-19T14:02:04;20.63;;;3.72;;
83435;SDS011;73365;51.688;5.132;2023-11-19T14:04:32;15.77;;;3.75;;
83435;SDS011;73365;51.688;5.132;2023-11-19T14:09:23;17.20;;;2.93;;
83435;SDS011;73365;51.688;5.132;2023-11-19T14:11:48;15.32;;;3.25;;
83435;SDS011;73365;51.688;5.132;2023-11-19T14:14:16;20.17;;;4.03;;
83435;SDS011;73365;51.688;5.132;2023-11-19T14:19:07;14.87;;;2.57;;
83435;SDS011;73365;51.688;5.132;2023-11-19T14:23:58;10.63;;;2.83;;
83435;SDS011;73365;51.688;5.132;2023-11-19T14:28:49;17.63;;;2.60;;
83435;SDS011;73365;51.688;5.132;2023-11-19T14:33:40;19.05;;;3.47;;
83435;SDS011;73365;51.688;5.132;2023-11-19T14:38:32;17.52;;;3.40;;
83435;SDS011;73365;51.688;5.132;2023-11-19T14:43:24;14.00;;;2.60;;
83435;SDS011;73365;51.688;5.132;2023-11-19T14:48:15;20.60;;;2.77;;
83435;SDS011;73365;51.688;5.132;2023-11-19T14:53:06;17.37;;;3.40;;
83435;SDS011;73365;51.688;5.132;2023-11-19T14:57:57;20.10;;;4.03;;
83435;SDS011;73365;51.688;5.132;2023-11-19T15:00:22;24.42;;;3.40;;
83435;SDS011;73365;51.688;5.132;2023-11-19T15:05:12;15.87;;;2.67;;
83435;SDS011;73365;51.688;5.132;2023-11-19T15:07:39;18.30;;;2.45;;
83435;SDS011;73365;51.688;5.132;2023-11-19T15:10:08;21.45;;;3.13;;
83435;SDS011;73365;51.688;5.132;2023-11-19T15:12:37;20.27;;;3.80;;
83435;SDS011;73365;51.688;5.132;2023-11-19T15:15:05;18.40;;;2.80;;
83435;SDS011;73365;51.688;5.132;2023-11-19T15:17:32;17.58;;;2.97;;
83435;SDS011;73365;51.688;5.132;2023-11-19T15:22:22;12.60;;;2.43;;
83435;SDS011;73365;51.688;5.132;2023-11-19T15:27:13;15.70;;;3.20;;
83435;SDS011;73365;51.688;5.132;2023-11-19T15:32:05;20.58;;;2.22;;
83435;SDS011;73365;51.688;5.132;2023-11-19T15:34:32;13.75;;;2.15;;
83435;SDS011;73365;51.688;5.132;2023-11-19T15:36:58;14.05;;;2.45;;
83435;SDS011;73365;51.688;5.132;2023-11-19T15:39:25;17.85;;;2.85;;
83435;SDS011;73365;51.688;5.132;2023-11-19T15:41:52;14.70;;;2.50;;
83435;SDS011;73365;51.688;5.132;2023-11-19T15:46:42;11.87;;;2.17;;
83435;SDS011;73365;51.688;5.132;2023-11-19T15:51:33;16.57;;;2.77;;
83435;SDS011;73365;51.688;5.132;2023-11-19T15:56:24;15.83;;;2.50;;
83435;SDS011;73365;51.688;5.132;2023-11-19T15:58:50;19.08;;;3.28;;
83435;SDS011;73365;51.688;5.132;2023-11-19T16:03:42;17.00;;;2.63;;
83435;SDS011;73365;51.688;5.132;2023-11-19T16:08:35;16.52;;;2.97;;
83435;SDS011;73365;51.688;5.132;2023-11-19T16:13:26;18.23;;;2.80;;
83435;SDS011;73365;51.688;5.132;2023-11-19T16:18:17;16.77;;;3.40;;
83435;SDS011;73365;51.688;5.132;2023-11-19T16:23:07;14.30;;;2.73;;
83435;SDS011;73365;51.688;5.132;2023-11-19T16:28:00;17.45;;;2.63;;
83435;SDS011;73365;51.688;5.132;2023-11-19T16:32:51;14.50;;;1.85;;
83435;SDS011;73365;51.688;5.132;2023-11-19T16:35:19;15.60;;;2.20;;
83435;SDS011;73365;51.688;5.132;2023-11-19T16:40:10;12.52;;;2.13;;
83435;SDS011;73365;51.688;5.132;2023-11-19T16:42:37;10.50;;;2.30;;
83435;SDS011;73365;51.688;5.132;2023-11-19T16:45:03;11.02;;;2.47;;
83435;SDS011;73365;51.688;5.132;2023-11-19T16:47:30;14.10;;;2.60;;
83435;SDS011;73365;51.688;5.132;2023-11-19T16:52:21;14.47;;;2.47;;
83435;SDS011;73365;51.688;5.132;2023-11-19T16:57:12;13.30;;;2.30;;
83435;SDS011;73365;51.688;5.132;2023-11-19T17:02:03;9.83;;;1.80;;
83435;SDS011;73365;51.688;5.132;2023-11-19T17:06:53;13.33;;;2.37;;
83435;SDS011;73365;51.688;5.132;2023-11-19T17:11:44;16.77;;;3.07;;
83435;SDS011;73365;51.688;5.132;2023-11-19T17:16:35;9.93;;;2.15;;
83435;SDS011;73365;51.688;5.132;2023-11-19T17:19:04;12.85;;;2.53;;
83435;SDS011;73365;51.688;5.132;2023-11-19T17:23:54;12.73;;;2.40;;
83435;SDS011;73365;51.688;5.132;2023-11-19T17:28:45;16.33;;;2.83;;
83435;SDS011;73365;51.688;5.132;2023-11-19T17:33:36;11.23;;;2.55;;
83435;SDS011;73365;51.688;5.132;2023-11-19T17:38:28;17.02;;;2.85;;
83435;SDS011;73365;51.688;5.132;2023-11-19T17:43:22;15.57;;;3.28;;
83435;SDS011;73365;51.688;5.132;2023-11-19T17:45:49;14.30;;;2.75;;
83435;SDS011;73365;51.688;5.132;2023-11-19T17:50:40;14.30;;;2.97;;
83435;SDS011;73365;51.688;5.132;2023-11-19T17:53:05;13.85;;;3.10;;
83435;SDS011;73365;51.688;5.132;2023-11-19T17:57:56;14.17;;;3.10;;
83435;SDS011;73365;51.688;5.132;2023-11-19T18:00:21;15.75;;;3.13;;
83435;SDS011;73365;51.688;5.132;2023-11-19T18:02:47;15.98;;;3.10;;
83435;SDS011;73365;51.688;5.132;2023-11-19T18:05:14;13.95;;;3.13;;
83435;SDS011;73365;51.688;5.132;2023-11-19T18:07:41;14.32;;;3.88;;
83435;SDS011;73365;51.688;5.132;2023-11-19T18:12:35;15.52;;;2.78;;
83435;SDS011;73365;51.688;5.132;2023-11-19T18:15:04;6.63;;;2.67;;
83435;SDS011;73365;51.688;5.132;2023-11-19T18:17:33;15.30;;;3.17;;
83435;SDS011;73365;51.688;5.132;2023-11-19T18:22:25;13.87;;;2.50;;
83435;SDS011;73365;51.688;5.132;2023-11-19T18:24:51;11.88;;;2.70;;
83435;SDS011;73365;51.688;5.132;2023-11-19T18:27:16;14.93;;;3.80;;
83435;SDS011;73365;51.688;5.132;2023-11-19T18:29:44;10.25;;;2.90;;
83435;SDS011;73365;51.688;5.132;2023-11-19T18:32:11;12.70;;;2.72;;
83435;SDS011;73365;51.688;5.132;2023-11-19T18:34:38;10.15;;;2.70;;
83435;SDS011;73365;51.688;5.132;2023-11-19T18:37:05;18.38;;;3.00;;
83435;SDS011;73365;51.688;5.132;2023-11-19T18:41:56;13.80;;;3.00;;
83435;SDS011;73365;51.688;5.132;2023-11-19T18:46:46;7.37;;;2.33;;
83435;SDS011;73365;51.688;5.132;2023-11-19T18:51:37;12.87;;;2.73;;
83435;SDS011;73365;51.688;5.132;2023-11-19T18:54:03;10.77;;;2.53;;
83435;SDS011;73365;51.688;5.132;2023-11-19T18:58:54;7.75;;;2.50;;
83435;SDS011;73365;51.688;5.132;2023-11-19T19:01:20;13.85;;;3.17;;
83435;SDS011;73365;51.688;5.132;2023-11-19T19:06:11;12.70;;;2.33;;
83435;SDS011;73365;51.688;5.132;2023-11-19T19:11:03;8.50;;;2.57;;
83435;SDS011;73365;51.688;5.132;2023-11-19T19:13:29;13.38;;;5.07;;
83435;SDS011;73365;51.688;5.132;2023-11-19T19:15:54;12.02;;;3.80;;
83435;SDS011;73365;51.688;5.132;2023-11-19T19:20:45;9.67;;;3.23;;
83435;SDS011;73365;51.688;5.132;2023-11-19T19:25:36;8.60;;;3.25;;
83435;SDS011;73365;51.688;5.132;2023-11-19T19:30:27;11.35;;;3.28;;
83435;SDS011;73365;51.688;5.132;2023-11-19T19:35:18;8.55;;;2.75;;
83435;SDS011;73365;51.688;5.132;2023-11-19T19:37:44;13.80;;;3.65;;
83435;SDS011;73365;51.688;5.132;2023-11-19T19:42:36;10.73;;;3.03;;
83435;SDS011;73365;51.688;5.132;2023-11-19T19:45:06;12.80;;;3.38;;
83435;SDS011;73365;51.688;5.132;2023-11-19T19:47:34;12.05;;;3.42;;
83435;SDS011;73365;51.688;5.132;2023-11-19T19:52:26;9.00;;;3.28;;
83435;SDS011;73365;51.688;5.132;2023-11-19T19:57:16;12.33;;;3.13;;
83435;SDS011;73365;51.688;5.132;2023-11-19T20:02:07;13.52;;;3.65;;
83435;SDS011;73365;51.688;5.132;2023-11-19T20:07:00;13.55;;;4.25;;
83435;SDS011;73365;51.688;5.132;2023-11-19T20:11:50;9.83;;;3.03;;
83435;SDS011;73365;51.688;5.132;2023-11-19T20:14:18;9.35;;;2.85;;
83435;SDS011;73365;51.688;5.132;2023-11-19T20:16:48;11.52;;;3.63;;
83435;SDS011;73365;51.688;5.132;2023-11-19T20:21:39;13.00;;;3.33;;
83435;SDS011;73365;51.688;5.132;2023-11-19T20:26:30;11.75;;;2.65;;
83435;SDS011;73365;51.688;5.132;2023-11-19T20:31:21;9.10;;;2.50;;
83435;SDS011;73365;51.688;5.132;2023-11-19T20:36:12;10.77;;;3.20;;
83435;SDS011;73365;51.688;5.132;2023-11-19T20:38:40;11.95;;;2.97;;
83435;SDS011;73365;51.688;5.132;2023-11-19T20:43:31;10.30;;;2.90;;
83435;SDS011;73365;51.688;5.132;2023-11-19T20:48:22;11.90;;;2.87;;
83435;SDS011;73365;51.688;5.132;2023-11-19T20:53:12;13.98;;;2.92;;
83435;SDS011;73365;51.688;5.132;2023-11-19T20:58:04;16.33;;;3.28;;
83435;SDS011;73365;51.688;5.132;2023-11-19T21:00:33;12.63;;;2.53;;
83435;SDS011;73365;51.688;5.132;2023-11-19T21:05:24;12.43;;;2.67;;
83435;SDS011;73365;51.688;5.132;2023-11-19T21:10:15;11.70;;;2.50;;
83435;SDS011;73365;51.688;5.132;2023-11-19T21:15:06;11.70;;;2.17;;
83435;SDS011;73365;51.688;5.132;2023-11-19T21:17:32;12.13;;;2.63;;
83435;SDS011;73365;51.688;5.132;2023-11-19T21:22:23;12.00;;;2.45;;
83435;SDS011;73365;51.688;5.132;2023-11-19T21:27:14;11.40;;;2.50;;
83435;SDS011;73365;51.688;5.132;2023-11-19T21:29:41;12.70;;;2.30;;
83435;SDS011;73365;51.688;5.132;2023-11-19T21:34:32;20.50;;;3.60;;
83435;SDS011;73365;51.688;5.132;2023-11-19T21:36:57;13.50;;;2.42;;
83435;SDS011;73365;51.688;5.132;2023-11-19T21:41:48;8.83;;;2.27;;
83435;SDS011;73365;51.688;5.132;2023-11-19T21:46:39;11.13;;;2.40;;
83435;SDS011;73365;51.688;5.132;2023-11-19T21:51:29;14.03;;;2.47;;
83435;SDS011;73365;51.688;5.132;2023-11-19T21:56:20;19.10;;;2.47;;
83435;SDS011;73365;51.688;5.132;2023-11-19T22:01:11;12.85;;;1.95;;
83435;SDS011;73365;51.688;5.132;2023-11-19T22:06:02;11.70;;;2.40;;
83435;SDS011;73365;51.688;5.132;2023-11-19T22:08:28;16.58;;;2.92;;
83435;SDS011;73365;51.688;5.132;2023-11-19T22:10:54;16.80;;;2.92;;
83435;SDS011;73365;51.688;5.132;2023-11-19T22:15:45;15.27;;;2.83;;
83435;SDS011;73365;51.688;5.132;2023-11-19T22:18:11;13.35;;;2.17;;
83435;SDS011;73365;51.688;5.132;2023-11-19T22:23:03;15.30;;;2.47;;
83435;SDS011;73365;51.688;5.132;2023-11-19T22:25:29;16.35;;;2.70;;